createdAt,value
2022-12-28T00:05:00.177Z,101466.16
2022-12-28T00:10:06.208Z,101452.46
2022-12-28T00:15:12.313Z,101454.41
2022-12-28T00:20:20.995Z,101445.72
2022-12-28T00:25:26.441Z,101444.59
2022-12-28T00:30:32.066Z,101433.41
2022-12-28T00:35:37.584Z,101419.54
2022-12-28T00:40:43.813Z,101406.84
2022-12-28T00:45:50.446Z,101402.03
2022-12-28T00:51:04.678Z,101388.22
2022-12-28T00:56:18.951Z,101393.14
2022-12-28T01:01:28.235Z,101410.39
2022-12-28T01:06:35.773Z,101411.62
2022-12-28T01:11:43.168Z,101410.95
2022-12-28T01:16:48.901Z,101414.44
2022-12-28T01:21:54.485Z,101397.64
2022-12-28T01:27:00.028Z,101392.60
2022-12-28T01:32:06.107Z,101372.83
2022-12-28T01:37:11.522Z,101372.83
2022-12-28T01:42:21.787Z,101366.20
2022-12-28T01:47:30.212Z,101342.05
2022-12-28T01:52:41.609Z,101340.47
2022-12-28T01:58:08.161Z,101333.84
2022-12-28T02:03:16.882Z,101322.52
2022-12-28T02:08:43.725Z,101316.87
2022-12-28T02:13:52.320Z,101313.16
2022-12-28T02:18:58.197Z,101291.11
2022-12-28T02:24:21.765Z,101283.48
2022-12-28T02:29:45.022Z,101257.52
2022-12-28T02:34:59.649Z,101252.30
2022-12-28T02:40:08.174Z,101253.94
2022-12-28T02:45:54.678Z,101244.45
2022-12-28T02:51:03.193Z,101228.98
2022-12-28T02:56:29.867Z,101227.13
2022-12-28T03:01:57.149Z,101217.25
2022-12-28T03:07:29.705Z,101183.98
2022-12-28T03:12:41.436Z,101177.36
2022-12-28T03:18:05.793Z,101164.66
2022-12-28T03:23:32.341Z,101156.34
2022-12-28T03:28:58.581Z,101152.28
2022-12-28T03:34:08.401Z,101128.85
2022-12-28T03:39:21.835Z,101122.19
2022-12-28T03:44:31.614Z,101117.64
2022-12-28T03:49:38.186Z,101103.06
2022-12-28T03:54:44.695Z,101085.34
2022-12-28T03:59:51.596Z,101088.69
2022-12-28T04:04:57.452Z,101078.95
2022-12-28T04:10:03.614Z,101068.84
2022-12-28T04:15:09.906Z,101062.95
2022-12-28T04:20:16.831Z,101049.70
2022-12-28T04:25:22.727Z,101040.10
2022-12-28T04:30:28.437Z,101038.54
2022-12-28T04:35:34.392Z,101024.66
2022-12-28T04:40:40.144Z,101019.35
2022-12-28T04:45:45.606Z,101015.79
2022-12-28T04:50:51.048Z,101011.31
2022-12-28T04:55:58.140Z,101005.01
2022-12-28T05:01:09.308Z,101002.77
2022-12-28T05:06:19.627Z,100997.02
2022-12-28T05:11:27.988Z,100990.47
2022-12-28T05:16:33.600Z,100976.90
2022-12-28T05:21:39.265Z,100961.68
2022-12-28T05:26:44.729Z,100951.63
2022-12-28T05:31:50.210Z,100949.48
2022-12-28T05:36:55.701Z,100950.71
2022-12-28T05:42:02.800Z,100949.57
2022-12-28T05:47:08.346Z,100954.69
2022-12-28T05:52:13.746Z,100949.52
2022-12-28T05:57:19.188Z,100931.75
2022-12-28T06:02:26.467Z,100934.76
2022-12-28T06:07:31.976Z,100924.20
2022-12-28T06:12:37.518Z,100922.16
2022-12-28T06:17:43.075Z,100925.03
2022-12-28T06:22:48.510Z,100934.30
2022-12-28T06:27:54.490Z,100930.66
2022-12-28T06:33:00.277Z,100919.81
2022-12-28T06:38:05.876Z,100913.42
2022-12-28T06:43:11.332Z,100898.80
2022-12-28T06:48:16.790Z,100897.14
2022-12-28T06:53:22.311Z,100886.45
2022-12-28T06:58:29.431Z,100880.70
2022-12-28T07:03:35.104Z,100862.19
2022-12-28T07:08:40.917Z,100863.28
2022-12-28T07:13:46.547Z,100857.94
2022-12-28T07:18:52.707Z,100856.64
2022-12-28T07:23:58.622Z,100840.88
2022-12-28T07:29:06.088Z,100831.33
2022-12-28T07:34:12.077Z,100830.66
2022-12-28T07:39:17.512Z,100812.42
2022-12-28T07:44:25.571Z,100803.01
2022-12-28T07:49:30.465Z,100795.81
2022-12-28T07:54:35.996Z,100806.37
2022-12-28T07:59:41.616Z,100793.95
2022-12-28T08:04:52.029Z,100799.91
2022-12-28T08:09:54.226Z,100779.00
2022-12-28T08:15:01.365Z,100779.59
2022-12-28T08:20:07.597Z,100776.09
2022-12-28T08:25:13.573Z,100770.57
2022-12-28T08:30:19.159Z,100758.03
2022-12-28T08:35:24.779Z,100750.05
2022-12-28T08:40:30.882Z,100736.45
2022-12-28T08:45:36.426Z,100734.31
2022-12-28T08:50:42.031Z,100737.75
2022-12-28T08:55:47.536Z,100724.47
2022-12-28T09:00:53.055Z,100725.52
2022-12-28T09:05:58.752Z,100712.30
2022-12-28T09:11:06.855Z,100706.39
2022-12-28T09:16:15.541Z,100690.23
2022-12-28T09:21:23.806Z,100690.92
2022-12-28T09:26:35.350Z,100689.31
2022-12-28T09:31:41.578Z,100690.23
2022-12-28T09:36:47.241Z,100698.68
2022-12-28T09:42:05.282Z,100700.17
2022-12-28T09:47:30.433Z,100685.45
2022-12-28T09:52:40.545Z,100666.68
2022-12-28T09:57:49.968Z,100662.58
2022-12-28T10:03:04.568Z,100657.91
2022-12-28T10:08:13.948Z,100650.91
2022-12-28T10:13:54.141Z,100640.16
2022-12-28T10:18:39.669Z,100627.24
2022-12-28T10:24:12.476Z,100625.86
2022-12-28T10:28:58.390Z,100614.98
2022-12-28T10:34:05.620Z,100615.70
2022-12-28T10:39:20.037Z,100603.01
2022-12-28T10:44:43.920Z,100599.11
2022-12-28T10:49:43.917Z,100597.09
2022-12-28T10:54:54.577Z,100598.04
2022-12-28T11:00:16.411Z,100581.83
2022-12-28T11:05:25.614Z,100572.37
2022-12-28T11:10:32.603Z,100561.31
2022-12-28T11:15:38.138Z,100549.63
2022-12-28T11:20:52.425Z,100538.53
2022-12-28T11:25:58.557Z,100528.73
2022-12-28T11:31:05.582Z,100517.79
2022-12-28T11:36:16.928Z,100500.25
2022-12-28T11:41:33.699Z,100522.23
2022-12-28T11:46:39.493Z,100513.94
2022-12-28T11:51:45.090Z,100504.87
2022-12-28T11:56:56.234Z,100505.56
2022-12-28T12:02:03.961Z,100505.61
2022-12-28T12:07:18.098Z,100494.17
2022-12-28T12:12:32.601Z,100490.67
2022-12-28T12:17:50.279Z,100483.69
2022-12-28T12:23:01.868Z,100481.62
2022-12-28T12:28:18.925Z,100477.56
2022-12-28T12:33:27.524Z,100476.88
2022-12-28T12:38:47.675Z,100476.20
2022-12-28T12:44:08.214Z,100479.33
2022-12-28T12:49:22.501Z,100474.72
2022-12-28T12:54:39.563Z,100464.95
2022-12-28T13:00:06.274Z,100466.42
2022-12-28T13:05:14.705Z,100474.94
2022-12-28T13:10:34.997Z,100469.01
2022-12-28T13:15:43.448Z,100466.81
2022-12-28T13:21:00.300Z,100469.43
2022-12-28T13:26:05.966Z,100475.52
2022-12-28T13:31:20.263Z,100469.43
2022-12-28T13:36:25.916Z,100463.63
2022-12-28T13:41:35.310Z,100459.73
2022-12-28T13:46:44.175Z,100455.73
2022-12-28T13:51:53.523Z,100446.88
2022-12-28T13:57:20.480Z,100441.34
2022-12-28T14:02:06.322Z,100436.03
2022-12-28T14:07:17.915Z,100437.20
2022-12-28T14:12:24.220Z,100434.43
2022-12-28T14:17:30.996Z,100440.38
2022-12-28T14:22:39.223Z,100438.90
2022-12-28T14:27:59.800Z,100441.88
2022-12-28T14:33:13.391Z,100430.91
2022-12-28T14:38:18.498Z,100434.81
2022-12-28T14:43:27.119Z,100438.81
2022-12-28T14:48:35.538Z,100447.48
2022-12-28T14:53:41.069Z,100437.21
2022-12-28T14:58:55.276Z,100433.92
2022-12-28T15:04:04.533Z,100438.77
2022-12-28T15:09:11.276Z,100432.02
2022-12-28T15:14:16.724Z,100435.75
2022-12-28T15:19:22.984Z,100430.48
2022-12-28T15:24:33.808Z,100425.07
2022-12-28T15:30:04.437Z,100429.87
2022-12-28T15:34:44.381Z,100432.55
2022-12-28T15:39:50.271Z,100430.11
2022-12-28T15:44:55.773Z,100430.16
2022-12-28T15:50:02.968Z,100439.52
2022-12-28T15:55:09.144Z,100431.22
2022-12-28T16:00:18.378Z,100436.38
2022-12-28T16:05:24.088Z,100435.91
2022-12-28T16:10:29.681Z,100436.99
2022-12-28T16:15:35.750Z,100428.52
2022-12-28T16:20:41.131Z,100431.02
2022-12-28T16:25:52.460Z,100437.22
2022-12-28T16:30:59.033Z,100432.61
2022-12-28T16:36:05.984Z,100432.83
2022-12-28T16:41:12.612Z,100423.58
2022-12-28T16:46:18.397Z,100424.74
2022-12-28T16:51:24.034Z,100422.94
2022-12-28T16:56:29.421Z,100432.20
2022-12-28T17:01:35.621Z,100422.70
2022-12-28T17:06:43.075Z,100422.45
2022-12-28T17:11:51.895Z,100423.53
2022-12-28T17:16:57.489Z,100411.02
2022-12-28T17:22:04.242Z,100410.41
2022-12-28T17:27:15.549Z,100413.34
2022-12-28T17:32:17.934Z,100401.80
2022-12-28T17:37:23.483Z,100394.17
2022-12-28T17:42:28.939Z,100391.05
2022-12-28T17:47:35.068Z,100396.94
2022-12-28T17:52:41.990Z,100390.66
2022-12-28T17:57:47.369Z,100387.16
2022-12-28T18:02:53.812Z,100383.16
2022-12-28T18:07:59.529Z,100383.37
2022-12-28T18:13:05.153Z,100386.91
2022-12-28T18:18:10.764Z,100387.52
2022-12-28T18:23:16.385Z,100378.27
2022-12-28T18:28:23.554Z,100389.36
2022-12-28T18:33:29.084Z,100380.49
2022-12-28T18:38:35.722Z,100381.31
2022-12-28T18:43:41.855Z,100382.73
2022-12-28T18:48:47.517Z,100376.06
2022-12-28T18:53:52.889Z,100370.47
2022-12-28T18:58:59.080Z,100369.22
2022-12-28T19:04:05.911Z,100380.07
2022-12-28T19:09:12.435Z,100370.09
2022-12-28T19:14:18.166Z,100363.49
2022-12-28T19:19:23.643Z,100363.13
2022-12-28T19:24:29.177Z,100359.56
2022-12-28T19:29:34.557Z,100362.55
2022-12-28T19:34:40.007Z,100358.16
2022-12-28T19:39:45.677Z,100350.92
2022-12-28T19:44:51.198Z,100348.91
2022-12-28T19:49:56.879Z,100348.05
2022-12-28T19:55:02.328Z,100338.70
2022-12-28T20:00:09.740Z,100356.87
2022-12-28T20:05:17.091Z,100348.00
2022-12-28T20:10:22.721Z,100341.42
2022-12-28T20:15:28.451Z,100339.53
2022-12-28T20:21:08.927Z,100333.88
2022-12-28T20:25:41.162Z,100336.30
2022-12-28T20:30:49.675Z,100335.13
2022-12-28T20:36:04.240Z,100323.27
2022-12-28T20:41:14.048Z,100323.38
2022-12-28T20:46:19.637Z,100324.53
2022-12-28T20:51:25.126Z,100322.81
2022-12-28T20:56:30.658Z,100323.22
2022-12-28T21:01:38.269Z,100326.47
2022-12-28T21:06:44.850Z,100315.23
2022-12-28T21:11:52.251Z,100327.63
2022-12-28T21:16:57.865Z,100309.61
2022-12-28T21:22:03.263Z,100298.39
2022-12-28T21:27:08.798Z,100300.48
2022-12-28T21:32:14.506Z,100289.62
2022-12-28T21:37:35.132Z,100288.19
2022-12-28T21:42:41.613Z,100293.12
2022-12-28T21:47:47.314Z,100277.52
2022-12-28T21:52:52.704Z,100268.80
2022-12-28T21:58:01.238Z,100258.86
2022-12-28T22:03:25.065Z,100258.48
2022-12-28T22:08:50.293Z,100247.65
2022-12-28T22:13:55.743Z,100232.81
2022-12-28T22:19:03.540Z,100248.08
2022-12-28T22:24:09.512Z,100242.14
2022-12-28T22:29:15.602Z,100235.74
2022-12-28T22:34:21.129Z,100225.80
2022-12-28T22:39:26.512Z,100220.65
2022-12-28T22:44:32.028Z,100210.63
2022-12-28T22:49:37.491Z,100187.25
2022-12-28T22:54:42.934Z,100178.78
2022-12-28T22:59:48.531Z,100162.14
2022-12-28T23:04:54.041Z,100163.50
2022-12-28T23:09:59.796Z,100153.41
2022-12-28T23:15:20.127Z,100156.84
2022-12-28T23:20:43.726Z,100132.25
2022-12-28T23:26:07.245Z,100135.39
2022-12-28T23:31:12.647Z,100122.63
2022-12-28T23:36:18.152Z,100119.38
2022-12-28T23:41:41.543Z,100104.03
2022-12-28T23:46:49.583Z,100094.23
2022-12-28T23:51:55.622Z,100075.85
2022-12-28T23:57:01.179Z,100066.34
